sensor_id;sensor_type;location;lat;lon;timestamp;P1;durP1;ratioP1;P2;durP2;ratioP2
934;SDS011;454;53.254;10.400;2024-02-21T05:00:16;22.27;;;9.82;;
934;SDS011;454;53.254;10.400;2024-02-21T05:02:43;12.23;;;7.88;;
934;SDS011;454;53.254;10.400;2024-02-21T05:05:10;14.00;;;8.05;;
934;SDS011;454;53.254;10.400;2024-02-21T05:07:37;16.50;;;9.35;;
934;SDS011;454;53.254;10.400;2024-02-21T05:10:04;12.25;;;8.48;;
934;SDS011;454;53.254;10.400;2024-02-21T05:12:33;15.18;;;8.20;;
934;SDS011;454;53.254;10.400;2024-02-21T05:14:59;21.00;;;9.45;;
934;SDS011;454;53.254;10.400;2024-02-21T05:17:27;13.43;;;8.10;;
934;SDS011;454;53.254;10.400;2024-02-21T05:19:54;17.48;;;8.20;;
934;SDS011;454;53.254;10.400;2024-02-21T05:22:21;19.23;;;8.65;;
934;SDS011;454;53.254;10.400;2024-02-21T05:24:48;13.85;;;9.00;;
934;SDS011;454;53.254;10.400;2024-02-21T05:27:14;17.58;;;8.50;;
934;SDS011;454;53.254;10.400;2024-02-21T05:29:41;15.45;;;6.32;;
934;SDS011;454;53.254;10.400;2024-02-21T05:32:08;17.77;;;7.70;;
934;SDS011;454;53.254;10.400;2024-02-21T05:34:36;15.57;;;8.90;;
934;SDS011;454;53.254;10.400;2024-02-21T05:37:02;16.38;;;7.63;;
934;SDS011;454;53.254;10.400;2024-02-21T05:39:29;10.73;;;7.10;;
934;SDS011;454;53.254;10.400;2024-02-21T05:41:56;10.82;;;6.80;;
934;SDS011;454;53.254;10.400;2024-02-21T05:44:23;12.00;;;6.75;;
934;SDS011;454;53.254;10.400;2024-02-21T05:46:51;9.65;;;6.88;;
934;SDS011;454;53.254;10.400;2024-02-21T05:49:18;14.32;;;7.35;;
934;SDS011;454;53.254;10.400;2024-02-21T05:51:46;12.63;;;7.88;;
934;SDS011;454;53.254;10.400;2024-02-21T05:54:12;13.68;;;8.05;;
934;SDS011;454;53.254;10.400;2024-02-21T05:56:39;9.50;;;6.53;;
934;SDS011;454;53.254;10.400;2024-02-21T05:59:09;18.55;;;6.53;;
934;SDS011;454;53.254;10.400;2024-02-21T06:01:36;10.00;;;7.22;;
934;SDS011;454;53.254;10.400;2024-02-21T06:04:03;18.05;;;12.27;;
934;SDS011;454;53.254;10.400;2024-02-21T06:06:30;18.10;;;8.35;;
934;SDS011;454;53.254;10.400;2024-02-21T06:08:58;13.00;;;7.00;;
934;SDS011;454;53.254;10.400;2024-02-21T06:11:25;12.20;;;6.28;;
934;SDS011;454;53.254;10.400;2024-02-21T06:13:52;13.55;;;7.13;;
934;SDS011;454;53.254;10.400;2024-02-21T06:16:18;9.48;;;5.57;;
934;SDS011;454;53.254;10.400;2024-02-21T06:18:45;8.32;;;5.95;;
934;SDS011;454;53.254;10.400;2024-02-21T06:21:12;9.80;;;6.38;;
934;SDS011;454;53.254;10.400;2024-02-21T06:23:38;16.20;;;6.32;;
934;SDS011;454;53.254;10.400;2024-02-21T06:26:06;8.32;;;5.15;;
934;SDS011;454;53.254;10.400;2024-02-21T06:28:33;9.32;;;6.30;;
934;SDS011;454;53.254;10.400;2024-02-21T06:31:00;12.23;;;5.80;;
934;SDS011;454;53.254;10.400;2024-02-21T06:33:26;9.20;;;6.40;;
934;SDS011;454;53.254;10.400;2024-02-21T06:35:53;7.47;;;5.43;;
934;SDS011;454;53.254;10.400;2024-02-21T06:38:20;11.52;;;6.72;;
934;SDS011;454;53.254;10.400;2024-02-21T06:40:46;7.28;;;4.85;;
934;SDS011;454;53.254;10.400;2024-02-21T06:43:19;10.65;;;6.63;;
934;SDS011;454;53.254;10.400;2024-02-21T06:45:47;9.25;;;5.63;;
934;SDS011;454;53.254;10.400;2024-02-21T06:48:16;7.63;;;6.05;;
934;SDS011;454;53.254;10.400;2024-02-21T06:50:43;13.07;;;6.22;;
934;SDS011;454;53.254;10.400;2024-02-21T06:53:10;9.85;;;5.82;;
934;SDS011;454;53.254;10.400;2024-02-21T06:55:37;12.38;;;5.22;;
934;SDS011;454;53.254;10.400;2024-02-21T06:58:04;7.55;;;5.00;;
934;SDS011;454;53.254;10.400;2024-02-21T07:00:34;6.88;;;4.32;;
934;SDS011;454;53.254;10.400;2024-02-21T07:03:01;9.38;;;4.55;;
934;SDS011;454;53.254;10.400;2024-02-21T07:05:28;4.68;;;4.28;;
934;SDS011;454;53.254;10.400;2024-02-21T07:07:55;6.93;;;5.07;;
934;SDS011;454;53.254;10.400;2024-02-21T07:10:22;6.93;;;4.78;;
934;SDS011;454;53.254;10.400;2024-02-21T07:12:48;5.35;;;4.85;;
934;SDS011;454;53.254;10.400;2024-02-21T07:15:17;5.80;;;4.97;;
934;SDS011;454;53.254;10.400;2024-02-21T07:17:45;7.25;;;3.78;;
934;SDS011;454;53.254;10.400;2024-02-21T07:20:11;3.60;;;2.97;;
934;SDS011;454;53.254;10.400;2024-02-21T07:22:38;3.35;;;2.83;;
934;SDS011;454;53.254;10.400;2024-02-21T07:25:05;8.73;;;5.28;;
934;SDS011;454;53.254;10.400;2024-02-21T07:27:33;4.38;;;3.92;;
934;SDS011;454;53.254;10.400;2024-02-21T07:29:59;6.82;;;2.72;;
934;SDS011;454;53.254;10.400;2024-02-21T07:32:26;6.22;;;3.65;;
934;SDS011;454;53.254;10.400;2024-02-21T07:34:56;7.20;;;4.18;;
934;SDS011;454;53.254;10.400;2024-02-21T07:37:23;4.47;;;3.60;;
934;SDS011;454;53.254;10.400;2024-02-21T07:39:50;4.55;;;4.10;;
934;SDS011;454;53.254;10.400;2024-02-21T07:42:16;3.45;;;2.80;;
934;SDS011;454;53.254;10.400;2024-02-21T07:44:43;6.97;;;3.85;;
934;SDS011;454;53.254;10.400;2024-02-21T07:47:10;7.05;;;2.85;;
934;SDS011;454;53.254;10.400;2024-02-21T07:49:40;4.03;;;3.50;;
934;SDS011;454;53.254;10.400;2024-02-21T07:52:09;5.88;;;4.03;;
934;SDS011;454;53.254;10.400;2024-02-21T07:54:36;4.68;;;3.88;;
934;SDS011;454;53.254;10.400;2024-02-21T07:57:02;3.83;;;2.50;;
934;SDS011;454;53.254;10.400;2024-02-21T07:59:29;5.72;;;4.15;;
934;SDS011;454;53.254;10.400;2024-02-21T08:01:56;8.35;;;4.85;;
934;SDS011;454;53.254;10.400;2024-02-21T08:04:23;5.88;;;3.95;;
934;SDS011;454;53.254;10.400;2024-02-21T08:06:51;8.82;;;4.03;;
934;SDS011;454;53.254;10.400;2024-02-21T08:09:22;8.38;;;4.38;;
934;SDS011;454;53.254;10.400;2024-02-21T08:11:49;4.35;;;4.05;;
934;SDS011;454;53.254;10.400;2024-02-21T08:14:15;5.00;;;3.88;;
934;SDS011;454;53.254;10.400;2024-02-21T08:16:43;4.63;;;4.22;;
934;SDS011;454;53.254;10.400;2024-02-21T08:19:10;6.43;;;3.95;;
934;SDS011;454;53.254;10.400;2024-02-21T08:21:37;5.03;;;4.53;;
934;SDS011;454;53.254;10.400;2024-02-21T08:24:04;6.25;;;4.65;;
934;SDS011;454;53.254;10.400;2024-02-21T08:26:32;4.05;;;3.40;;
934;SDS011;454;53.254;10.400;2024-02-21T08:28:59;7.22;;;5.35;;
934;SDS011;454;53.254;10.400;2024-02-21T08:31:26;3.60;;;3.25;;
934;SDS011;454;53.254;10.400;2024-02-21T08:33:56;9.57;;;5.78;;
934;SDS011;454;53.254;10.400;2024-02-21T08:36:27;7.55;;;4.80;;
934;SDS011;454;53.254;10.400;2024-02-21T08:38:53;4.72;;;4.25;;
934;SDS011;454;53.254;10.400;2024-02-21T08:41:20;4.90;;;4.47;;
934;SDS011;454;53.254;10.400;2024-02-21T08:43:49;6.32;;;4.15;;
934;SDS011;454;53.254;10.400;2024-02-21T08:46:16;4.00;;;3.70;;
934;SDS011;454;53.254;10.400;2024-02-21T08:48:43;4.90;;;4.40;;
934;SDS011;454;53.254;10.400;2024-02-21T08:51:10;6.30;;;3.90;;
934;SDS011;454;53.254;10.400;2024-02-21T08:53:37;4.32;;;3.88;;
934;SDS011;454;53.254;10.400;2024-02-21T08:56:05;6.22;;;4.60;;
934;SDS011;454;53.254;10.400;2024-02-21T08:58:33;10.10;;;5.18;;
934;SDS011;454;53.254;10.400;2024-02-21T09:01:02;5.35;;;4.88;;
934;SDS011;454;53.254;10.400;2024-02-21T09:03:30;5.50;;;3.50;;
934;SDS011;454;53.254;10.400;2024-02-21T09:05:57;4.68;;;4.22;;
934;SDS011;454;53.254;10.400;2024-02-21T09:08:24;9.68;;;5.43;;
934;SDS011;454;53.254;10.400;2024-02-21T09:10:51;4.38;;;3.15;;
934;SDS011;454;53.254;10.400;2024-02-21T09:13:18;4.68;;;4.28;;
934;SDS011;454;53.254;10.400;2024-02-21T09:15:45;7.65;;;4.47;;
934;SDS011;454;53.254;10.400;2024-02-21T09:18:13;5.22;;;4.72;;
934;SDS011;454;53.254;10.400;2024-02-21T09:20:39;9.15;;;4.90;;
934;SDS011;454;53.254;10.400;2024-02-21T09:23:06;5.43;;;4.15;;
934;SDS011;454;53.254;10.400;2024-02-21T09:25:33;4.10;;;3.70;;
934;SDS011;454;53.254;10.400;2024-02-21T09:28:00;3.45;;;3.15;;
934;SDS011;454;53.254;10.400;2024-02-21T09:30:28;9.68;;;7.70;;
934;SDS011;454;53.254;10.400;2024-02-21T09:32:55;8.18;;;4.90;;
934;SDS011;454;53.254;10.400;2024-02-21T09:35:25;9.55;;;4.28;;
934;SDS011;454;53.254;10.400;2024-02-21T09:37:52;4.60;;;4.22;;
934;SDS011;454;53.254;10.400;2024-02-21T09:40:19;4.88;;;4.35;;
934;SDS011;454;53.254;10.400;2024-02-21T09:42:47;4.45;;;3.42;;
934;SDS011;454;53.254;10.400;2024-02-21T09:45:15;8.23;;;5.30;;
934;SDS011;454;53.254;10.400;2024-02-21T09:47:50;4.65;;;3.75;;
934;SDS011;454;53.254;10.400;2024-02-21T09:50:26;4.20;;;3.80;;
934;SDS011;454;53.254;10.400;2024-02-21T09:52:55;6.03;;;4.47;;
934;SDS011;454;53.254;10.400;2024-02-21T09:55:24;9.80;;;6.45;;
934;SDS011;454;53.254;10.400;2024-02-21T09:57:54;11.05;;;6.70;;
934;SDS011;454;53.254;10.400;2024-02-21T10:00:21;11.82;;;5.28;;
934;SDS011;454;53.254;10.400;2024-02-21T10:02:48;12.32;;;6.90;;
934;SDS011;454;53.254;10.400;2024-02-21T10:05:15;12.68;;;6.68;;
934;SDS011;454;53.254;10.400;2024-02-21T10:07:44;9.88;;;6.88;;
934;SDS011;454;53.254;10.400;2024-02-21T10:10:10;8.70;;;6.82;;
934;SDS011;454;53.254;10.400;2024-02-21T10:12:47;15.52;;;6.82;;
934;SDS011;454;53.254;10.400;2024-02-21T10:15:19;9.63;;;5.97;;
934;SDS011;454;53.254;10.400;2024-02-21T10:17:46;12.40;;;6.85;;
934;SDS011;454;53.254;10.400;2024-02-21T10:20:13;12.38;;;7.85;;
934;SDS011;454;53.254;10.400;2024-02-21T10:22:41;9.48;;;6.40;;
934;SDS011;454;53.254;10.400;2024-02-21T10:25:10;10.45;;;6.35;;
934;SDS011;454;53.254;10.400;2024-02-21T10:27:38;7.60;;;5.35;;
934;SDS011;454;53.254;10.400;2024-02-21T10:30:07;22.17;;;7.35;;
934;SDS011;454;53.254;10.400;2024-02-21T10:32:48;11.85;;;8.00;;
934;SDS011;454;53.254;10.400;2024-02-21T10:35:24;9.90;;;6.63;;
934;SDS011;454;53.254;10.400;2024-02-21T10:37:52;13.98;;;7.10;;
934;SDS011;454;53.254;10.400;2024-02-21T10:40:22;15.35;;;7.65;;
934;SDS011;454;53.254;10.400;2024-02-21T10:42:50;13.07;;;5.97;;
934;SDS011;454;53.254;10.400;2024-02-21T10:45:22;12.75;;;7.30;;
934;SDS011;454;53.254;10.400;2024-02-21T10:47:55;10.38;;;5.93;;
934;SDS011;454;53.254;10.400;2024-02-21T10:50:27;8.00;;;6.53;;
934;SDS011;454;53.254;10.400;2024-02-21T10:53:04;9.70;;;6.47;;
934;SDS011;454;53.254;10.400;2024-02-21T10:55:44;11.65;;;5.82;;
934;SDS011;454;53.254;10.400;2024-02-21T10:58:20;7.70;;;5.50;;
934;SDS011;454;53.254;10.400;2024-02-21T11:00:47;11.38;;;6.88;;
934;SDS011;454;53.254;10.400;2024-02-21T11:03:16;13.65;;;8.07;;
934;SDS011;454;53.254;10.400;2024-02-21T11:05:43;6.80;;;4.80;;
934;SDS011;454;53.254;10.400;2024-02-21T11:08:10;12.87;;;6.97;;
934;SDS011;454;53.254;10.400;2024-02-21T11:10:49;6.93;;;5.45;;
934;SDS011;454;53.254;10.400;2024-02-21T11:13:16;8.03;;;5.47;;
934;SDS011;454;53.254;10.400;2024-02-21T11:15:43;11.75;;;4.97;;
934;SDS011;454;53.254;10.400;2024-02-21T11:18:09;6.25;;;5.35;;
934;SDS011;454;53.254;10.400;2024-02-21T11:20:36;11.50;;;5.13;;
934;SDS011;454;53.254;10.400;2024-02-21T11:23:04;8.10;;;5.45;;
934;SDS011;454;53.254;10.400;2024-02-21T11:25:32;5.70;;;4.40;;
934;SDS011;454;53.254;10.400;2024-02-21T11:28:00;5.70;;;3.43;;
934;SDS011;454;53.254;10.400;2024-02-21T11:30:29;12.35;;;5.90;;
934;SDS011;454;53.254;10.400;2024-02-21T11:33:01;9.02;;;5.05;;
934;SDS011;454;53.254;10.400;2024-02-21T11:35:30;8.85;;;5.25;;
934;SDS011;454;53.254;10.400;2024-02-21T11:38:07;9.23;;;6.35;;
934;SDS011;454;53.254;10.400;2024-02-21T11:40:35;7.88;;;5.18;;
934;SDS011;454;53.254;10.400;2024-02-21T11:43:05;7.13;;;5.55;;
934;SDS011;454;53.254;10.400;2024-02-21T11:45:32;9.63;;;5.72;;
934;SDS011;454;53.254;10.400;2024-02-21T11:47:59;10.95;;;6.55;;
934;SDS011;454;53.254;10.400;2024-02-21T11:50:28;11.57;;;6.13;;
934;SDS011;454;53.254;10.400;2024-02-21T11:52:56;6.00;;;5.25;;
934;SDS011;454;53.254;10.400;2024-02-21T11:55:23;8.75;;;6.10;;
934;SDS011;454;53.254;10.400;2024-02-21T11:57:50;11.90;;;6.20;;
934;SDS011;454;53.254;10.400;2024-02-21T12:00:19;12.48;;;6.53;;
934;SDS011;454;53.254;10.400;2024-02-21T12:02:46;11.88;;;7.18;;
934;SDS011;454;53.254;10.400;2024-02-21T12:05:13;10.45;;;6.85;;
934;SDS011;454;53.254;10.400;2024-02-21T12:07:40;14.50;;;7.43;;
934;SDS011;454;53.254;10.400;2024-02-21T12:10:08;12.45;;;7.63;;
934;SDS011;454;53.254;10.400;2024-02-21T12:12:36;14.25;;;8.32;;
934;SDS011;454;53.254;10.400;2024-02-21T12:15:04;24.27;;;10.23;;
934;SDS011;454;53.254;10.400;2024-02-21T12:17:33;17.27;;;9.27;;
934;SDS011;454;53.254;10.400;2024-02-21T12:20:01;14.07;;;9.20;;
934;SDS011;454;53.254;10.400;2024-02-21T12:22:30;15.50;;;9.73;;
934;SDS011;454;53.254;10.400;2024-02-21T12:24:58;19.52;;;9.93;;
934;SDS011;454;53.254;10.400;2024-02-21T12:27:24;20.98;;;8.88;;
934;SDS011;454;53.254;10.400;2024-02-21T12:29:51;12.00;;;9.18;;
934;SDS011;454;53.254;10.400;2024-02-21T12:32:18;19.80;;;9.75;;
934;SDS011;454;53.254;10.400;2024-02-21T12:34:46;42.15;;;12.05;;
934;SDS011;454;53.254;10.400;2024-02-21T12:37:13;23.55;;;10.00;;
934;SDS011;454;53.254;10.400;2024-02-21T12:39:40;10.95;;;8.50;;
934;SDS011;454;53.254;10.400;2024-02-21T12:42:07;13.77;;;9.38;;
934;SDS011;454;53.254;10.400;2024-02-21T12:44:36;15.32;;;11.20;;
934;SDS011;454;53.254;10.400;2024-02-21T12:47:03;8.57;;;7.25;;
934;SDS011;454;53.254;10.400;2024-02-21T12:49:30;11.77;;;7.45;;
934;SDS011;454;53.254;10.400;2024-02-21T12:51:58;13.60;;;8.32;;
934;SDS011;454;53.254;10.400;2024-02-21T12:54:25;11.55;;;10.18;;
934;SDS011;454;53.254;10.400;2024-02-21T12:56:52;13.38;;;8.82;;
934;SDS011;454;53.254;10.400;2024-02-21T12:59:19;13.02;;;8.48;;
934;SDS011;454;53.254;10.400;2024-02-21T13:01:46;12.77;;;9.45;;
934;SDS011;454;53.254;10.400;2024-02-21T13:04:15;8.23;;;6.10;;
934;SDS011;454;53.254;10.400;2024-02-21T13:06:45;12.23;;;7.80;;
934;SDS011;454;53.254;10.400;2024-02-21T13:09:18;17.08;;;6.78;;
934;SDS011;454;53.254;10.400;2024-02-21T13:11:47;44.58;;;12.45;;
934;SDS011;454;53.254;10.400;2024-02-21T13:14:17;16.85;;;8.70;;
934;SDS011;454;53.254;10.400;2024-02-21T13:16:43;11.18;;;7.53;;
934;SDS011;454;53.254;10.400;2024-02-21T13:19:10;14.93;;;8.40;;
934;SDS011;454;53.254;10.400;2024-02-21T13:21:38;15.00;;;7.20;;
934;SDS011;454;53.254;10.400;2024-02-21T13:24:05;9.73;;;6.00;;
934;SDS011;454;53.254;10.400;2024-02-21T13:26:34;6.38;;;5.68;;
934;SDS011;454;53.254;10.400;2024-02-21T13:29:01;10.88;;;6.07;;
934;SDS011;454;53.254;10.400;2024-02-21T13:31:28;9.47;;;6.70;;
934;SDS011;454;53.254;10.400;2024-02-21T13:33:55;7.22;;;5.68;;
934;SDS011;454;53.254;10.400;2024-02-21T13:36:21;7.27;;;5.17;;
934;SDS011;454;53.254;10.400;2024-02-21T13:38:48;10.30;;;6.30;;
934;SDS011;454;53.254;10.400;2024-02-21T13:41:16;7.10;;;5.70;;
934;SDS011;454;53.254;10.400;2024-02-21T13:43:44;9.47;;;6.40;;
934;SDS011;454;53.254;10.400;2024-02-21T13:46:12;10.63;;;5.30;;
934;SDS011;454;53.254;10.400;2024-02-21T13:48:38;5.73;;;5.23;;
934;SDS011;454;53.254;10.400;2024-02-21T13:51:05;7.07;;;4.55;;
934;SDS011;454;53.254;10.400;2024-02-21T13:53:32;4.75;;;4.40;;
934;SDS011;454;53.254;10.400;2024-02-21T13:55:59;7.70;;;5.93;;
934;SDS011;454;53.254;10.400;2024-02-21T13:58:26;6.03;;;5.30;;
934;SDS011;454;53.254;10.400;2024-02-21T14:00:54;5.38;;;4.63;;
934;SDS011;454;53.254;10.400;2024-02-21T14:03:21;6.03;;;5.40;;
934;SDS011;454;53.254;10.400;2024-02-21T14:05:48;4.73;;;4.33;;
934;SDS011;454;53.254;10.400;2024-02-21T14:08:15;7.77;;;5.20;;
934;SDS011;454;53.254;10.400;2024-02-21T14:10:42;3.80;;;3.50;;
934;SDS011;454;53.254;10.400;2024-02-21T14:13:08;4.83;;;4.10;;
934;SDS011;454;53.254;10.400;2024-02-21T14:15:36;4.33;;;4.10;;
934;SDS011;454;53.254;10.400;2024-02-21T14:18:07;9.73;;;5.90;;
934;SDS011;454;53.254;10.400;2024-02-21T14:20:34;4.95;;;3.70;;
934;SDS011;454;53.254;10.400;2024-02-21T14:23:02;7.43;;;4.55;;
934;SDS011;454;53.254;10.400;2024-02-21T14:25:29;6.33;;;4.43;;
934;SDS011;454;53.254;10.400;2024-02-21T14:27:56;5.82;;;5.22;;
934;SDS011;454;53.254;10.400;2024-02-21T14:30:22;8.48;;;3.95;;
934;SDS011;454;53.254;10.400;2024-02-21T14:32:50;6.37;;;4.57;;
934;SDS011;454;53.254;10.400;2024-02-21T14:35:18;3.13;;;2.83;;
934;SDS011;454;53.254;10.400;2024-02-21T14:37:45;4.60;;;4.30;;
934;SDS011;454;53.254;10.400;2024-02-21T14:40:13;3.70;;;3.50;;
934;SDS011;454;53.254;10.400;2024-02-21T14:42:41;4.07;;;3.63;;
934;SDS011;454;53.254;10.400;2024-02-21T14:45:08;3.20;;;3.00;;
934;SDS011;454;53.254;10.400;2024-02-21T14:47:35;3.85;;;3.58;;
934;SDS011;454;53.254;10.400;2024-02-21T14:50:02;12.40;;;5.55;;
934;SDS011;454;53.254;10.400;2024-02-21T14:52:31;4.38;;;4.05;;
934;SDS011;454;53.254;10.400;2024-02-21T14:54:58;3.65;;;3.45;;
934;SDS011;454;53.254;10.400;2024-02-21T14:57:27;4.43;;;4.13;;
934;SDS011;454;53.254;10.400;2024-02-21T14:59:54;7.80;;;7.13;;
934;SDS011;454;53.254;10.400;2024-02-21T15:02:23;3.40;;;3.20;;
934;SDS011;454;53.254;10.400;2024-02-21T15:04:53;3.85;;;3.63;;
934;SDS011;454;53.254;10.400;2024-02-21T15:07:20;3.53;;;3.33;;
934;SDS011;454;53.254;10.400;2024-02-21T15:09:51;7.25;;;3.45;;
934;SDS011;454;53.254;10.400;2024-02-21T15:12:18;3.88;;;3.67;;
934;SDS011;454;53.254;10.400;2024-02-21T15:14:50;6.85;;;3.88;;
934;SDS011;454;53.254;10.400;2024-02-21T15:17:22;3.70;;;3.40;;
934;SDS011;454;53.254;10.400;2024-02-21T15:19:48;3.05;;;2.97;;
934;SDS011;454;53.254;10.400;2024-02-21T15:22:15;2.88;;;2.75;;
934;SDS011;454;53.254;10.400;2024-02-21T15:24:43;2.65;;;2.40;;
934;SDS011;454;53.254;10.400;2024-02-21T15:27:13;2.40;;;2.30;;
934;SDS011;454;53.254;10.400;2024-02-21T15:29:40;4.10;;;2.75;;
934;SDS011;454;53.254;10.400;2024-02-21T15:32:09;3.00;;;2.75;;
934;SDS011;454;53.254;10.400;2024-02-21T15:34:37;3.15;;;2.63;;
934;SDS011;454;53.254;10.400;2024-02-21T15:37:16;6.45;;;4.38;;
934;SDS011;454;53.254;10.400;2024-02-21T15:40:00;5.15;;;4.75;;
934;SDS011;454;53.254;10.400;2024-02-21T15:42:29;3.03;;;2.85;;
934;SDS011;454;53.254;10.400;2024-02-21T15:45:00;3.00;;;2.50;;
934;SDS011;454;53.254;10.400;2024-02-21T15:47:29;2.97;;;2.72;;
934;SDS011;454;53.254;10.400;2024-02-21T15:50:05;3.28;;;2.90;;
934;SDS011;454;53.254;10.400;2024-02-21T15:52:44;3.75;;;2.47;;
934;SDS011;454;53.254;10.400;2024-02-21T15:55:11;2.42;;;2.22;;
934;SDS011;454;53.254;10.400;2024-02-21T15:57:42;2.50;;;2.30;;
934;SDS011;454;53.254;10.400;2024-02-21T16:00:09;2.28;;;2.17;;
934;SDS011;454;53.254;10.400;2024-02-21T16:02:40;2.53;;;2.30;;
934;SDS011;454;53.254;10.400;2024-02-21T16:05:10;2.20;;;2.10;;
934;SDS011;454;53.254;10.400;2024-02-21T16:07:44;2.03;;;2.03;;
934;SDS011;454;53.254;10.400;2024-02-21T16:10:16;3.28;;;2.55;;
934;SDS011;454;53.254;10.400;2024-02-21T16:12:44;3.50;;;2.25;;
934;SDS011;454;53.254;10.400;2024-02-21T16:15:20;3.53;;;2.30;;
934;SDS011;454;53.254;10.400;2024-02-21T16:17:49;3.20;;;1.95;;
934;SDS011;454;53.254;10.400;2024-02-21T16:20:26;7.70;;;5.00;;
934;SDS011;454;53.254;10.400;2024-02-21T16:22:53;3.70;;;2.70;;
934;SDS011;454;53.254;10.400;2024-02-21T16:25:30;2.85;;;2.65;;
934;SDS011;454;53.254;10.400;2024-02-21T16:28:03;2.80;;;2.60;;
934;SDS011;454;53.254;10.400;2024-02-21T16:30:46;3.90;;;2.50;;
934;SDS011;454;53.254;10.400;2024-02-21T16:33:19;2.80;;;2.60;;
934;SDS011;454;53.254;10.400;2024-02-21T16:35:51;1.92;;;1.83;;
934;SDS011;454;53.254;10.400;2024-02-21T16:38:26;3.55;;;3.35;;
934;SDS011;454;53.254;10.400;2024-02-21T16:41:02;3.38;;;2.92;;
934;SDS011;454;53.254;10.400;2024-02-21T16:43:41;4.40;;;4.05;;
934;SDS011;454;53.254;10.400;2024-02-21T16:46:07;8.85;;;6.57;;
934;SDS011;454;53.254;10.400;2024-02-21T16:48:43;13.50;;;7.50;;
934;SDS011;454;53.254;10.400;2024-02-21T16:51:15;9.70;;;6.15;;
934;SDS011;454;53.254;10.400;2024-02-21T16:53:47;6.30;;;5.70;;
934;SDS011;454;53.254;10.400;2024-02-21T16:56:20;9.32;;;6.75;;
934;SDS011;454;53.254;10.400;2024-02-21T16:58:58;6.90;;;4.95;;
934;SDS011;454;53.254;10.400;2024-02-21T17:01:34;8.68;;;6.72;;
934;SDS011;454;53.254;10.400;2024-02-21T17:04:05;3.38;;;3.17;;
934;SDS011;454;53.254;10.400;2024-02-21T17:06:47;9.98;;;6.40;;
934;SDS011;454;53.254;10.400;2024-02-21T17:09:18;5.90;;;4.82;;
934;SDS011;454;53.254;10.400;2024-02-21T17:11:52;5.15;;;3.72;;
934;SDS011;454;53.254;10.400;2024-02-21T17:14:22;3.60;;;3.40;;
934;SDS011;454;53.254;10.400;2024-02-21T17:16:54;3.53;;;3.25;;
934;SDS011;454;53.254;10.400;2024-02-21T17:22:14;7.22;;;5.15;;
934;SDS011;454;53.254;10.400;2024-02-21T17:24:56;6.10;;;4.65;;
934;SDS011;454;53.254;10.400;2024-02-21T17:27:37;6.90;;;3.63;;
934;SDS011;454;53.254;10.400;2024-02-21T17:30:12;3.80;;;3.47;;
934;SDS011;454;53.254;10.400;2024-02-21T17:32:51;2.65;;;2.50;;
934;SDS011;454;53.254;10.400;2024-02-21T17:35:28;5.47;;;3.60;;
934;SDS011;454;53.254;10.400;2024-02-21T17:38:06;6.80;;;3.72;;
934;SDS011;454;53.254;10.400;2024-02-21T17:40:36;5.45;;;4.03;;
934;SDS011;454;53.254;10.400;2024-02-21T17:43:05;6.30;;;4.80;;
934;SDS011;454;53.254;10.400;2024-02-21T17:45:59;8.02;;;4.43;;
934;SDS011;454;53.254;10.400;2024-02-21T17:48:38;4.55;;;3.95;;
934;SDS011;454;53.254;10.400;2024-02-21T17:51:16;15.02;;;7.95;;
934;SDS011;454;53.254;10.400;2024-02-21T17:53:55;5.40;;;4.32;;
934;SDS011;454;53.254;10.400;2024-02-21T17:56:35;7.22;;;5.20;;
934;SDS011;454;53.254;10.400;2024-02-21T17:59:02;6.50;;;5.00;;
934;SDS011;454;53.254;10.400;2024-02-21T18:01:46;7.38;;;5.97;;
934;SDS011;454;53.254;10.400;2024-02-21T18:04:16;9.50;;;6.18;;
934;SDS011;454;53.254;10.400;2024-02-21T18:06:43;8.02;;;5.20;;
934;SDS011;454;53.254;10.400;2024-02-21T18:09:09;4.07;;;3.72;;
934;SDS011;454;53.254;10.400;2024-02-21T18:11:36;6.13;;;5.50;;
934;SDS011;454;53.254;10.400;2024-02-21T18:14:03;6.53;;;5.30;;
934;SDS011;454;53.254;10.400;2024-02-21T18:16:32;5.82;;;4.95;;
934;SDS011;454;53.254;10.400;2024-02-21T18:19:00;6.13;;;5.50;;
934;SDS011;454;53.254;10.400;2024-02-21T18:21:28;7.07;;;5.38;;
934;SDS011;454;53.254;10.400;2024-02-21T18:23:55;8.80;;;5.00;;
934;SDS011;454;53.254;10.400;2024-02-21T18:26:22;6.82;;;5.05;;
934;SDS011;454;53.254;10.400;2024-02-21T18:28:48;2.53;;;2.33;;
934;SDS011;454;53.254;10.400;2024-02-21T18:31:17;4.88;;;4.10;;
934;SDS011;454;53.254;10.400;2024-02-21T18:33:44;16.88;;;8.90;;
934;SDS011;454;53.254;10.400;2024-02-21T18:36:13;5.95;;;5.18;;
934;SDS011;454;53.254;10.400;2024-02-21T18:38:39;8.18;;;5.85;;
934;SDS011;454;53.254;10.400;2024-02-21T18:41:06;8.98;;;4.90;;
934;SDS011;454;53.254;10.400;2024-02-21T18:43:34;6.75;;;4.32;;
934;SDS011;454;53.254;10.400;2024-02-21T18:46:01;4.97;;;4.25;;
934;SDS011;454;53.254;10.400;2024-02-21T18:48:28;6.78;;;3.42;;
934;SDS011;454;53.254;10.400;2024-02-21T18:50:54;10.43;;;5.60;;
934;SDS011;454;53.254;10.400;2024-02-21T18:53:23;8.15;;;4.63;;
934;SDS011;454;53.254;10.400;2024-02-21T18:55:49;5.03;;;2.70;;
934;SDS011;454;53.254;10.400;2024-02-21T18:58:16;8.50;;;4.60;;
934;SDS011;454;53.254;10.400;2024-02-21T19:00:43;4.70;;;3.22;;
934;SDS011;454;53.254;10.400;2024-02-21T19:03:09;17.60;;;5.07;;
934;SDS011;454;53.254;10.400;2024-02-21T19:05:36;14.43;;;5.75;;
934;SDS011;454;53.254;10.400;2024-02-21T19:08:03;3.88;;;3.25;;
934;SDS011;454;53.254;10.400;2024-02-21T19:10:32;10.85;;;4.50;;
934;SDS011;454;53.254;10.400;2024-02-21T19:12:58;5.97;;;2.85;;
934;SDS011;454;53.254;10.400;2024-02-21T19:15:26;13.07;;;10.40;;
934;SDS011;454;53.254;10.400;2024-02-21T19:17:53;3.42;;;3.22;;
934;SDS011;454;53.254;10.400;2024-02-21T19:20:20;4.45;;;4.05;;
934;SDS011;454;53.254;10.400;2024-02-21T19:22:49;11.15;;;7.28;;
934;SDS011;454;53.254;10.400;2024-02-21T19:25:15;14.68;;;6.80;;
934;SDS011;454;53.254;10.400;2024-02-21T19:27:47;6.65;;;3.58;;
934;SDS011;454;53.254;10.400;2024-02-21T19:30:14;7.13;;;4.05;;
934;SDS011;454;53.254;10.400;2024-02-21T19:32:41;9.50;;;6.00;;
934;SDS011;454;53.254;10.400;2024-02-21T19:35:08;4.55;;;2.78;;
934;SDS011;454;53.254;10.400;2024-02-21T19:37:36;5.50;;;2.83;;
934;SDS011;454;53.254;10.400;2024-02-21T19:40:04;7.97;;;3.58;;
934;SDS011;454;53.254;10.400;2024-02-21T19:42:32;5.13;;;4.65;;
934;SDS011;454;53.254;10.400;2024-02-21T19:45:00;8.98;;;4.65;;
934;SDS011;454;53.254;10.400;2024-02-21T19:47:28;7.07;;;3.90;;
934;SDS011;454;53.254;10.400;2024-02-21T19:49:54;9.23;;;3.30;;
934;SDS011;454;53.254;10.400;2024-02-21T19:52:21;4.78;;;2.83;;
934;SDS011;454;53.254;10.400;2024-02-21T19:54:48;5.90;;;4.38;;
934;SDS011;454;53.254;10.400;2024-02-21T19:57:17;1.98;;;1.63;;
934;SDS011;454;53.254;10.400;2024-02-21T19:59:44;4.38;;;4.07;;
934;SDS011;454;53.254;10.400;2024-02-21T20:02:12;3.20;;;2.35;;
934;SDS011;454;53.254;10.400;2024-02-21T20:04:39;2.25;;;2.15;;
934;SDS011;454;53.254;10.400;2024-02-21T20:07:05;2.22;;;2.20;;
934;SDS011;454;53.254;10.400;2024-02-21T20:09:32;2.63;;;2.42;;
934;SDS011;454;53.254;10.400;2024-02-21T20:12:01;1.95;;;1.85;;
934;SDS011;454;53.254;10.400;2024-02-21T20:14:29;2.67;;;2.58;;
934;SDS011;454;53.254;10.400;2024-02-21T20:16:56;3.67;;;3.38;;
934;SDS011;454;53.254;10.400;2024-02-21T20:19:24;5.03;;;3.83;;
934;SDS011;454;53.254;10.400;2024-02-21T20:21:51;2.67;;;2.47;;
934;SDS011;454;53.254;10.400;2024-02-21T20:24:18;3.70;;;3.40;;
934;SDS011;454;53.254;10.400;2024-02-21T20:26:44;2.58;;;2.42;;
934;SDS011;454;53.254;10.400;2024-02-21T20:29:12;3.00;;;2.90;;
934;SDS011;454;53.254;10.400;2024-02-21T20:31:40;6.93;;;4.13;;
934;SDS011;454;53.254;10.400;2024-02-21T20:34:10;3.72;;;2.17;;
934;SDS011;454;53.254;10.400;2024-02-21T20:36:39;3.70;;;3.45;;